createdAt,value
2023-03-14T00:01:01.395Z,3.49
2023-03-14T00:03:29.178Z,3.41
2023-03-14T00:05:56.725Z,3.39
2023-03-14T00:08:27.390Z,3.36
2023-03-14T00:10:56.162Z,3.36
2023-03-14T00:13:23.773Z,3.33
2023-03-14T00:15:51.317Z,3.29
2023-03-14T00:18:20.845Z,3.21
2023-03-14T00:20:48.406Z,3.09
2023-03-14T00:23:15.944Z,3.02
2023-03-14T00:25:43.450Z,3.06
2023-03-14T00:28:11.102Z,3.12
2023-03-14T00:30:38.825Z,3.19
2023-03-14T00:33:06.323Z,3.31
2023-03-14T00:35:33.921Z,3.37
2023-03-14T00:38:02.565Z,3.38
2023-03-14T00:40:30.095Z,3.34
2023-03-14T00:42:57.674Z,3.26
2023-03-14T00:45:25.220Z,3.24
2023-03-14T00:47:52.719Z,3.16
2023-03-14T00:50:20.966Z,2.99
2023-03-14T00:52:49.886Z,2.84
2023-03-14T00:55:17.466Z,2.71
2023-03-14T00:57:45.343Z,2.71
2023-03-14T01:00:13.646Z,2.76
2023-03-14T01:02:41.193Z,2.82
2023-03-14T01:05:11.317Z,2.86
2023-03-14T01:07:38.863Z,2.87
2023-03-14T01:10:06.368Z,2.93
2023-03-14T01:12:33.870Z,3.01
2023-03-14T01:15:01.596Z,3.05
2023-03-14T01:17:29.132Z,3.04
2023-03-14T01:19:56.747Z,3.04
2023-03-14T01:22:24.602Z,3.10
2023-03-14T01:24:52.166Z,3.16
2023-03-14T01:27:19.725Z,3.20
2023-03-14T01:29:48.333Z,3.20
2023-03-14T01:32:16.005Z,3.20
2023-03-14T01:34:43.578Z,3.09
2023-03-14T01:37:12.891Z,3.04
2023-03-14T01:39:40.371Z,3.01
2023-03-14T01:42:07.964Z,2.93
2023-03-14T01:44:35.634Z,2.85
2023-03-14T01:47:03.175Z,2.91
2023-03-14T01:49:30.796Z,2.96
2023-03-14T01:51:58.509Z,2.86
2023-03-14T01:54:26.101Z,2.83
2023-03-14T01:56:53.960Z,2.84
2023-03-14T01:59:21.551Z,2.90
2023-03-14T02:01:49.193Z,2.96
2023-03-14T02:04:17.015Z,3.00
2023-03-14T02:06:44.587Z,3.08
2023-03-14T02:09:12.113Z,3.16
2023-03-14T02:11:39.810Z,3.16
2023-03-14T02:14:07.346Z,3.20
2023-03-14T02:16:34.894Z,3.33
2023-03-14T02:19:02.670Z,3.42
2023-03-14T02:21:30.142Z,3.52
2023-03-14T02:23:57.652Z,3.60
2023-03-14T02:26:25.246Z,3.66
2023-03-14T02:28:54.509Z,3.73
2023-03-14T02:31:22.281Z,3.79
2023-03-14T02:33:50.012Z,3.85
2023-03-14T02:36:17.533Z,3.85
2023-03-14T02:38:45.143Z,3.84
2023-03-14T02:41:12.797Z,3.86
2023-03-14T02:43:40.345Z,3.89
2023-03-14T02:46:07.922Z,3.90
2023-03-14T02:48:35.796Z,3.95
2023-03-14T02:51:03.344Z,3.97
2023-03-14T02:53:31.064Z,3.96
2023-03-14T02:55:59.304Z,3.92
2023-03-14T02:58:26.933Z,3.90
2023-03-14T03:00:54.646Z,3.87
2023-03-14T03:03:22.460Z,3.80
2023-03-14T03:05:51.634Z,3.80
2023-03-14T03:08:20.336Z,3.80
2023-03-14T03:10:48.000Z,3.83
2023-03-14T03:13:15.525Z,3.88
2023-03-14T03:15:43.118Z,3.94
2023-03-14T03:18:10.684Z,3.97
2023-03-14T03:20:38.137Z,3.93
2023-03-14T03:23:05.685Z,3.91
2023-03-14T03:25:33.302Z,3.96
2023-03-14T03:28:00.853Z,4.07
2023-03-14T03:30:28.904Z,4.18
2023-03-14T03:32:56.658Z,4.25
2023-03-14T03:35:24.251Z,4.22
2023-03-14T03:37:51.806Z,4.22
2023-03-14T03:40:19.693Z,4.25
2023-03-14T03:42:48.297Z,4.37
2023-03-14T03:45:16.198Z,4.52
2023-03-14T03:47:43.803Z,4.59
2023-03-14T03:50:11.348Z,4.65
2023-03-14T03:52:39.021Z,4.70
2023-03-14T03:55:06.704Z,4.72
2023-03-14T03:57:34.303Z,4.75
2023-03-14T04:00:02.106Z,4.74
2023-03-14T04:02:29.760Z,4.66
2023-03-14T04:04:57.677Z,4.63
2023-03-14T04:07:25.586Z,4.55
2023-03-14T04:09:53.247Z,4.48
2023-03-14T04:12:21.469Z,4.41
2023-03-14T04:14:49.855Z,4.41
2023-03-14T04:17:17.355Z,4.44
2023-03-14T04:19:44.955Z,4.38
2023-03-14T04:22:12.503Z,4.39
2023-03-14T04:24:40.183Z,4.46
2023-03-14T04:27:07.686Z,4.52
2023-03-14T04:29:35.357Z,4.56
2023-03-14T04:32:02.939Z,4.55
2023-03-14T04:34:30.502Z,4.61
2023-03-14T04:36:58.050Z,4.68
2023-03-14T04:39:25.642Z,4.67
2023-03-14T04:41:53.477Z,4.63
2023-03-14T04:44:21.586Z,4.67
2023-03-14T04:46:49.857Z,4.72
2023-03-14T04:49:17.376Z,4.69
2023-03-14T04:51:45.024Z,4.69
2023-03-14T04:54:12.765Z,4.64
2023-03-14T04:56:40.290Z,4.66
2023-03-14T04:59:09.445Z,4.78
2023-03-14T05:01:37.275Z,4.97
2023-03-14T05:04:05.853Z,5.15
2023-03-14T05:06:33.382Z,5.28
2023-03-14T05:09:01.186Z,5.34
2023-03-14T05:11:29.797Z,5.28
2023-03-14T05:13:57.534Z,5.23
2023-03-14T05:16:25.101Z,5.23
2023-03-14T05:18:52.617Z,5.23
2023-03-14T05:21:20.156Z,5.11
2023-03-14T05:23:48.069Z,5.00
2023-03-14T05:26:17.726Z,4.95
2023-03-14T05:28:45.490Z,4.91
2023-03-14T05:31:13.116Z,4.90
2023-03-14T05:33:40.595Z,4.91
2023-03-14T05:36:08.115Z,4.92
2023-03-14T05:38:35.941Z,4.98
2023-03-14T05:41:03.504Z,5.11
2023-03-14T05:43:33.319Z,5.18
2023-03-14T05:46:01.332Z,5.16
2023-03-14T05:48:28.970Z,5.19
2023-03-14T05:50:56.596Z,5.35
2023-03-14T05:53:26.252Z,5.50
2023-03-14T05:55:55.978Z,5.55
2023-03-14T05:58:25.574Z,5.42
2023-03-14T06:00:53.191Z,5.38
2023-03-14T06:03:20.904Z,5.43
2023-03-14T06:05:48.924Z,5.49
2023-03-14T06:08:18.035Z,5.53
2023-03-14T06:10:45.872Z,5.57
2023-03-14T06:13:13.515Z,5.75
2023-03-14T06:15:41.047Z,5.92
2023-03-14T06:18:09.023Z,6.03
2023-03-14T06:20:37.016Z,6.13
2023-03-14T06:23:04.836Z,6.24
2023-03-14T06:25:32.458Z,6.32
2023-03-14T06:28:00.106Z,6.36
2023-03-14T06:30:27.775Z,6.36
2023-03-14T06:32:56.505Z,6.36
2023-03-14T06:35:24.196Z,6.37
2023-03-14T06:37:51.825Z,6.41
2023-03-14T06:40:19.967Z,6.47
2023-03-14T06:42:47.640Z,6.58
2023-03-14T06:45:15.813Z,6.67
2023-03-14T06:47:43.616Z,6.78
2023-03-14T06:50:11.492Z,6.88
2023-03-14T06:52:42.295Z,6.99
2023-03-14T06:55:10.348Z,7.12
2023-03-14T06:57:38.382Z,7.24
2023-03-14T07:00:06.189Z,7.35
2023-03-14T07:02:42.567Z,7.43
2023-03-14T07:05:14.184Z,7.54
2023-03-14T07:07:41.738Z,7.63
2023-03-14T07:10:10.181Z,7.71
2023-03-14T07:12:42.712Z,7.81
2023-03-14T07:17:57.862Z,7.97
2023-03-14T07:20:25.456Z,8.02
2023-03-14T07:22:52.956Z,8.03
2023-03-14T07:25:23.150Z,8.04
2023-03-14T07:27:50.930Z,8.06
2023-03-14T07:30:18.796Z,8.11
2023-03-14T07:32:48.721Z,8.16
2023-03-14T07:35:16.730Z,8.24
2023-03-14T07:37:44.353Z,8.32
2023-03-14T07:40:14.329Z,8.39
2023-03-14T07:42:41.893Z,8.45
2023-03-14T07:45:10.038Z,8.52
2023-03-14T07:47:37.608Z,8.59
2023-03-14T07:50:05.371Z,8.66
2023-03-14T07:52:33.448Z,8.74
2023-03-14T07:55:01.213Z,8.82
2023-03-14T07:57:29.461Z,8.93
2023-03-14T07:59:57.071Z,9.04
2023-03-14T08:02:26.582Z,9.14
2023-03-14T08:04:55.238Z,9.22
2023-03-14T08:07:22.792Z,9.34
2023-03-14T08:09:50.778Z,9.46
2023-03-14T08:12:18.691Z,9.58
2023-03-14T08:14:46.503Z,9.74
2023-03-14T08:17:14.081Z,9.93
2023-03-14T08:19:43.837Z,10.16
2023-03-14T08:22:11.460Z,10.39
2023-03-14T08:24:39.075Z,10.55
2023-03-14T08:27:08.713Z,10.71
2023-03-14T08:29:37.797Z,10.82
2023-03-14T08:32:06.824Z,10.88
2023-03-14T08:34:34.534Z,10.90
2023-03-14T08:37:04.391Z,10.94
2023-03-14T08:39:34.367Z,10.98
2023-03-14T08:42:01.953Z,11.03
2023-03-14T08:44:29.896Z,11.03
2023-03-14T08:46:57.697Z,11.04
2023-03-14T08:49:28.104Z,11.06
2023-03-14T08:51:55.818Z,11.06
2023-03-14T08:54:23.439Z,11.08
2023-03-14T08:56:51.338Z,11.15
2023-03-14T08:59:19.186Z,11.22
2023-03-14T09:01:46.826Z,11.28
2023-03-14T09:04:14.636Z,11.36
2023-03-14T09:06:42.276Z,11.43
2023-03-14T09:09:09.978Z,11.45
2023-03-14T09:11:37.488Z,11.48
2023-03-14T09:14:05.689Z,11.53
2023-03-14T09:16:34.771Z,11.58
2023-03-14T09:21:44.811Z,11.72
2023-03-14T09:24:14.805Z,11.77
2023-03-14T09:26:42.543Z,11.87
2023-03-14T09:29:10.542Z,11.98
2023-03-14T09:31:38.140Z,12.09
2023-03-14T09:34:05.663Z,12.21
2023-03-14T09:36:33.219Z,12.38
2023-03-14T09:39:00.687Z,12.55
2023-03-14T09:41:28.267Z,12.67
2023-03-14T09:43:55.982Z,12.73
2023-03-14T09:46:23.570Z,12.78
2023-03-14T09:48:51.302Z,12.83
2023-03-14T09:51:18.808Z,12.88
2023-03-14T09:53:46.838Z,12.94
2023-03-14T09:56:39.627Z,13.07
2023-03-14T09:59:07.378Z,13.19
2023-03-14T10:01:37.185Z,13.22
2023-03-14T10:04:04.947Z,13.21
2023-03-14T10:06:32.700Z,13.26
2023-03-14T10:09:00.456Z,13.28
2023-03-14T10:11:28.621Z,13.30
2023-03-14T10:13:56.464Z,13.27
2023-03-14T10:16:24.913Z,13.22
2023-03-14T10:18:52.456Z,13.19
2023-03-14T10:21:21.176Z,13.14
2023-03-14T10:23:49.955Z,13.05
2023-03-14T10:26:18.484Z,12.94
2023-03-14T10:28:46.183Z,12.81
2023-03-14T10:31:14.160Z,12.66
2023-03-14T10:33:42.897Z,12.53
2023-03-14T10:36:13.637Z,12.42
2023-03-14T10:38:42.034Z,12.34
2023-03-14T10:41:09.857Z,12.30
2023-03-14T10:43:40.139Z,12.25
2023-03-14T10:46:07.743Z,12.25
2023-03-14T10:48:36.064Z,12.24
2023-03-14T10:51:03.864Z,12.25
2023-03-14T10:53:34.421Z,12.27
2023-03-14T10:56:02.161Z,12.33
2023-03-14T10:58:31.963Z,12.34
2023-03-14T11:01:00.537Z,12.29
2023-03-14T11:03:28.188Z,12.24
2023-03-14T11:05:55.811Z,12.19
2023-03-14T11:08:23.779Z,12.11
2023-03-14T11:10:51.447Z,12.04
2023-03-14T11:13:19.007Z,12.03
2023-03-14T11:15:47.195Z,12.07
2023-03-14T11:18:14.804Z,12.14
2023-03-14T11:20:42.443Z,12.18
2023-03-14T11:23:10.221Z,12.23
2023-03-14T11:25:37.692Z,12.30
2023-03-14T11:28:06.038Z,12.30
2023-03-14T11:30:34.016Z,12.27
2023-03-14T11:33:02.982Z,12.25
2023-03-14T11:35:32.467Z,12.27
2023-03-14T11:38:00.670Z,12.33
2023-03-14T11:40:28.654Z,12.40
2023-03-14T11:42:56.213Z,12.48
2023-03-14T11:45:24.074Z,12.57
2023-03-14T11:47:51.874Z,12.64
2023-03-14T11:50:20.756Z,12.72
2023-03-14T11:52:48.687Z,12.79
2023-03-14T11:55:16.772Z,12.85
2023-03-14T11:57:44.647Z,12.94
2023-03-14T12:00:13.664Z,12.96
2023-03-14T12:02:41.288Z,12.98
2023-03-14T12:05:08.988Z,13.01
2023-03-14T12:07:36.781Z,13.08
2023-03-14T12:10:04.309Z,13.14
2023-03-14T12:12:32.799Z,13.19
2023-03-14T12:15:00.703Z,13.27
2023-03-14T12:17:29.301Z,13.34
2023-03-14T12:19:56.823Z,13.32
2023-03-14T12:22:25.318Z,13.27
2023-03-14T12:24:52.986Z,13.23
2023-03-14T12:27:20.751Z,13.18
2023-03-14T12:29:48.359Z,13.14
2023-03-14T12:32:16.058Z,13.09
2023-03-14T12:34:44.114Z,13.02
2023-03-14T12:37:11.811Z,12.98
2023-03-14T12:39:39.560Z,12.92
2023-03-14T12:42:08.106Z,12.88
2023-03-14T12:44:35.680Z,12.87
2023-03-14T12:47:03.807Z,12.88
2023-03-14T12:49:31.663Z,12.88
2023-03-14T12:51:59.358Z,12.85
2023-03-14T12:54:26.925Z,12.78
2023-03-14T12:56:55.025Z,12.78
2023-03-14T12:59:22.882Z,12.79
2023-03-14T13:01:51.236Z,12.74
2023-03-14T13:04:26.222Z,12.71
2023-03-14T13:06:58.291Z,12.72
2023-03-14T13:09:25.832Z,12.72
2023-03-14T13:11:53.349Z,12.70
2023-03-14T13:14:21.319Z,12.67
2023-03-14T13:16:49.076Z,12.63
2023-03-14T13:19:17.916Z,12.57
2023-03-14T13:21:45.549Z,12.53
2023-03-14T13:24:13.282Z,12.46
2023-03-14T13:26:41.191Z,12.41
2023-03-14T13:29:10.044Z,12.36
2023-03-14T13:31:37.737Z,12.32
2023-03-14T13:34:05.692Z,12.27
2023-03-14T13:36:33.713Z,12.20
2023-03-14T13:39:02.826Z,12.16
2023-03-14T13:41:30.864Z,12.14
2023-03-14T13:43:58.476Z,12.14
2023-03-14T13:46:26.476Z,12.13
2023-03-14T13:48:54.443Z,12.11
2023-03-14T13:51:22.107Z,12.09
2023-03-14T13:53:53.343Z,12.09
2023-03-14T13:56:21.106Z,12.10
2023-03-14T13:58:48.801Z,12.13
2023-03-14T14:01:17.272Z,12.17
2023-03-14T14:03:45.231Z,12.19
2023-03-14T14:06:13.307Z,12.18
2023-03-14T14:08:41.963Z,11.95
2023-03-14T14:11:11.175Z,11.67
2023-03-14T14:13:38.861Z,11.41
2023-03-14T14:16:06.594Z,11.25
2023-03-14T14:18:34.145Z,11.09
2023-03-14T14:21:02.267Z,10.92
2023-03-14T14:23:30.115Z,10.81
2023-03-14T14:25:58.770Z,10.75
2023-03-14T14:28:27.877Z,10.67
2023-03-14T14:30:55.692Z,10.63
2023-03-14T14:33:23.546Z,10.60
2023-03-14T14:35:53.638Z,10.58
2023-03-14T14:38:21.914Z,10.58
2023-03-14T14:40:49.658Z,10.56
2023-03-14T14:43:17.626Z,10.53
2023-03-14T14:45:45.219Z,10.53
2023-03-14T14:48:12.844Z,10.55
2023-03-14T14:50:40.620Z,10.56
2023-03-14T14:53:10.071Z,10.55
2023-03-14T14:55:37.536Z,10.52
2023-03-14T14:58:05.571Z,10.52
2023-03-14T15:00:33.081Z,10.47
2023-03-14T15:03:01.258Z,10.43
2023-03-14T15:05:31.792Z,10.44
2023-03-14T15:07:59.647Z,10.43
2023-03-14T15:10:27.734Z,10.39
2023-03-14T15:12:55.637Z,10.37
2023-03-14T15:15:23.229Z,10.35
2023-03-14T15:17:50.794Z,10.33
2023-03-14T15:20:19.239Z,10.33
2023-03-14T15:22:46.912Z,10.30
2023-03-14T15:25:34.851Z,10.26
2023-03-14T15:28:02.189Z,10.22
2023-03-14T15:30:32.029Z,10.18
2023-03-14T15:32:59.737Z,10.16
2023-03-14T15:35:27.499Z,10.12
2023-03-14T15:37:56.282Z,10.06
2023-03-14T15:40:23.940Z,10.03
2023-03-14T15:42:52.248Z,9.94
2023-03-14T15:45:19.940Z,9.85
2023-03-14T15:47:48.044Z,9.75
2023-03-14T15:50:15.743Z,9.85
2023-03-14T15:52:43.388Z,9.98
2023-03-14T15:55:11.246Z,9.98
2023-03-14T15:57:39.125Z,9.88
2023-03-14T16:00:09.617Z,9.84
2023-03-14T16:02:42.173Z,9.86
2023-03-14T16:05:10.417Z,9.75
2023-03-14T16:07:38.091Z,9.67
2023-03-14T16:10:05.886Z,9.68
2023-03-14T16:12:33.482Z,9.70
2023-03-14T16:15:01.052Z,9.68
2023-03-14T16:17:29.289Z,9.67
2023-03-14T16:19:57.633Z,9.65
2023-03-14T16:22:25.319Z,9.56
2023-03-14T16:25:00.093Z,9.60
2023-03-14T16:27:31.831Z,9.70
2023-03-14T16:30:00.561Z,9.57
2023-03-14T16:32:29.021Z,9.47
2023-03-14T16:34:57.599Z,9.38
2023-03-14T16:37:25.538Z,9.28
2023-03-14T16:42:59.739Z,9.17
2023-03-14T16:45:28.755Z,9.15
2023-03-14T16:47:56.379Z,9.10
2023-03-14T16:50:24.061Z,9.03
2023-03-14T16:52:51.893Z,8.99
2023-03-14T16:55:19.580Z,8.94
2023-03-14T16:57:47.281Z,8.93
2023-03-14T17:00:15.587Z,8.96
2023-03-14T17:02:43.370Z,8.96
2023-03-14T17:05:11.296Z,8.94
2023-03-14T17:07:39.579Z,8.92
2023-03-14T17:10:11.491Z,8.87
2023-03-14T17:12:39.341Z,8.78
2023-03-14T17:15:07.185Z,8.70
2023-03-14T17:17:35.176Z,8.67
2023-03-14T17:20:02.895Z,8.64
2023-03-14T17:22:32.752Z,8.63
2023-03-14T17:25:01.727Z,8.62
2023-03-14T17:27:29.555Z,8.61
2023-03-14T17:29:57.301Z,8.64
2023-03-14T17:32:26.468Z,8.67
2023-03-14T17:34:54.807Z,8.68
2023-03-14T17:37:23.497Z,8.68
2023-03-14T17:39:51.779Z,8.68
2023-03-14T17:42:19.653Z,8.65
2023-03-14T17:44:47.576Z,8.62
2023-03-14T17:47:15.527Z,8.55
2023-03-14T17:49:43.187Z,8.49
2023-03-14T17:52:12.925Z,8.43
2023-03-14T17:54:41.672Z,8.36
2023-03-14T17:57:10.032Z,8.33
2023-03-14T17:59:37.990Z,8.31
2023-03-14T18:02:07.022Z,8.27
2023-03-14T18:04:38.562Z,8.24
2023-03-14T18:07:06.353Z,8.22
2023-03-14T18:09:34.214Z,8.20
2023-03-14T18:12:08.040Z,8.21
2023-03-14T18:14:36.019Z,8.22
2023-03-14T18:17:04.247Z,8.25
2023-03-14T18:19:35.224Z,8.29
2023-03-14T18:22:03.252Z,8.31
2023-03-14T18:24:30.941Z,8.32
2023-03-14T18:26:58.857Z,8.33
2023-03-14T18:29:26.620Z,8.37
2023-03-14T18:31:56.916Z,8.40
2023-03-14T18:34:26.844Z,8.39
2023-03-14T18:36:54.680Z,8.34
2023-03-14T18:39:22.578Z,8.31
2023-03-14T18:41:51.288Z,8.31
2023-03-14T18:44:21.891Z,8.35
2023-03-14T18:46:50.373Z,8.33
2023-03-14T18:49:19.106Z,8.27
2023-03-14T18:51:49.124Z,8.24
2023-03-14T18:54:17.497Z,8.18
2023-03-14T18:56:45.293Z,8.20
2023-03-14T18:59:12.971Z,8.22
2023-03-14T19:01:43.234Z,8.27
2023-03-14T19:04:11.608Z,8.35
2023-03-14T19:06:39.615Z,8.41
2023-03-14T19:09:08.839Z,8.47
2023-03-14T19:11:36.630Z,8.53
2023-03-14T19:14:04.712Z,8.58
2023-03-14T19:16:32.888Z,8.62
2023-03-14T19:19:01.137Z,8.65
2023-03-14T19:21:29.019Z,8.66
2023-03-14T19:23:56.950Z,8.65
2023-03-14T19:26:24.697Z,8.65
2023-03-14T19:28:55.484Z,8.65
2023-03-14T19:31:23.291Z,8.66
2023-03-14T19:33:51.026Z,8.69
2023-03-14T19:36:19.806Z,8.69
2023-03-14T19:38:47.580Z,8.66
2023-03-14T19:41:15.226Z,8.60
2023-03-14T19:43:43.362Z,8.49
2023-03-14T19:46:10.984Z,8.35
2023-03-14T19:48:38.620Z,8.23
2023-03-14T19:51:06.439Z,8.14
2023-03-14T19:53:35.840Z,8.10
2023-03-14T19:56:08.570Z,8.09
2023-03-14T19:58:46.619Z,8.14
2023-03-14T20:01:17.779Z,8.14
2023-03-14T20:03:46.118Z,8.12
2023-03-14T20:06:16.688Z,8.06
2023-03-14T20:08:45.338Z,8.00
2023-03-14T20:11:13.207Z,7.99
2023-03-14T20:13:41.091Z,7.98
2023-03-14T20:16:12.018Z,7.97
2023-03-14T20:18:39.888Z,7.93
2023-03-14T20:21:07.780Z,7.89
2023-03-14T20:23:43.360Z,7.88
2023-03-14T20:26:11.839Z,7.90
2023-03-14T20:28:39.874Z,7.91
2023-03-14T20:31:07.959Z,7.95
2023-03-14T20:33:35.787Z,7.98
2023-03-14T20:36:04.686Z,8.00
2023-03-14T20:38:32.316Z,8.01
2023-03-14T20:41:00.603Z,8.03
2023-03-14T20:43:28.163Z,8.02
2023-03-14T20:45:55.977Z,8.01
2023-03-14T20:48:27.206Z,7.96
2023-03-14T20:50:54.840Z,7.90
2023-03-14T20:53:22.503Z,7.85
2023-03-14T20:55:50.143Z,7.80
2023-03-14T20:58:18.084Z,7.75
2023-03-14T21:00:45.708Z,7.72
2023-03-14T21:03:14.491Z,7.67
2023-03-14T21:05:47.330Z,7.64
2023-03-14T21:08:15.058Z,7.61
2023-03-14T21:10:42.719Z,7.57
2023-03-14T21:13:26.620Z,7.56
2023-03-14T21:15:54.948Z,7.52
2023-03-14T21:18:23.427Z,7.50
2023-03-14T21:20:51.143Z,7.46
2023-03-14T21:23:19.002Z,7.40
2023-03-14T21:25:46.653Z,7.36
2023-03-14T21:28:14.937Z,7.35
2023-03-14T21:30:42.681Z,7.33
2023-03-14T21:33:10.473Z,7.31
2023-03-14T21:35:38.110Z,7.27
2023-03-14T21:38:06.094Z,7.24
2023-03-14T21:40:33.640Z,7.19
2023-03-14T21:43:01.565Z,7.12
2023-03-14T21:45:29.395Z,7.05
2023-03-14T21:47:57.276Z,6.99
2023-03-14T21:50:24.836Z,6.93
2023-03-14T21:52:52.443Z,6.89
2023-03-14T21:55:20.217Z,6.85
2023-03-14T21:57:48.434Z,6.83
2023-03-14T22:00:20.519Z,6.79
2023-03-14T22:02:58.408Z,6.75
2023-03-14T22:05:36.977Z,6.70
2023-03-14T22:08:04.563Z,6.63
2023-03-14T22:10:32.250Z,6.54
2023-03-14T22:13:00.012Z,6.49
2023-03-14T22:15:27.749Z,6.45
2023-03-14T22:17:55.299Z,6.44
2023-03-14T22:20:23.047Z,6.43
2023-03-14T22:22:50.785Z,6.36
2023-03-14T22:25:18.328Z,6.28
2023-03-14T22:27:45.940Z,6.23
2023-03-14T22:30:32.546Z,6.18
2023-03-14T22:33:00.802Z,6.12
2023-03-14T22:35:28.836Z,6.06
2023-03-14T22:37:56.478Z,6.01
2023-03-14T22:40:24.074Z,6.03
2023-03-14T22:42:51.813Z,6.05
2023-03-14T22:45:19.323Z,6.04
2023-03-14T22:47:47.341Z,6.05
2023-03-14T22:50:14.865Z,6.09
2023-03-14T22:52:42.497Z,6.14
2023-03-14T22:55:10.770Z,6.17
2023-03-14T22:57:40.404Z,6.19
2023-03-14T23:00:12.195Z,6.26
2023-03-14T23:02:39.946Z,6.29
2023-03-14T23:05:07.980Z,6.34
2023-03-14T23:07:36.337Z,6.38
2023-03-14T23:10:04.598Z,6.36
2023-03-14T23:12:33.919Z,6.32
2023-03-14T23:15:01.540Z,6.32
2023-03-14T23:17:29.630Z,6.36
2023-03-14T23:19:57.753Z,6.43
2023-03-14T23:22:25.722Z,6.51
2023-03-14T23:24:54.316Z,6.55
2023-03-14T23:27:21.952Z,6.59
2023-03-14T23:29:49.671Z,6.60
2023-03-14T23:32:17.284Z,6.61
2023-03-14T23:34:44.930Z,6.63
2023-03-14T23:37:14.345Z,6.65
2023-03-14T23:39:43.754Z,6.68
2023-03-14T23:42:11.344Z,6.71
2023-03-14T23:44:38.914Z,6.74
2023-03-14T23:47:06.565Z,6.78
2023-03-14T23:49:34.187Z,6.84
2023-03-14T23:52:01.952Z,6.89
2023-03-14T23:54:29.803Z,6.92
2023-03-14T23:56:57.745Z,6.98
2023-03-14T23:59:25.862Z,7.03
